Time;durP1;ratioP1;P1;durP2;ratioP2;P2;SDS_P1;SDS_P2;PMS_P1;PMS_P2;Temp;Humidity;BMP_temperature;BMP_pressure;BME280_temperature;BME280_humidity;BME280_pressure;Samples;Min_cycle;Max_cycle;Signal;HPM_P1;HPM_P2
2023/10/12 00:02:32;;;;;;;2.88;1.48;;;;;;;;;;6175792;28;20039;-81
2023/10/12 00:05:34;;;;;;;5.53;1.80;;;;;;;;;;6171615;28;20784;-82
2023/10/12 00:08:34;;;;;;;2.25;1.40;;;;;;;;;;6172497;28;20093;-81
2023/10/12 00:11:39;;;;;;;3.83;1.27;;;;;;;;;;6171025;28;20101;-81
2023/10/12 00:14:41;;;;;;;2.83;1.25;;;;;;;;;;6172398;28;20035;-81
2023/10/12 00:17:41;;;;;;;2.80;1.33;;;;;;;;;;6170461;28;20027;-81
2023/10/12 00:20:44;;;;;;;3.50;1.43;;;;;;;;;;6171140;28;20077;-82
2023/10/12 00:23:44;;;;;;;1.10;0.90;;;;;;;;;;6168846;28;20031;-81
2023/10/12 00:26:44;;;;;;;2.58;1.42;;;;;;;;;;6174794;28;20474;-81
2023/10/12 00:29:48;;;;;;;2.80;1.20;;;;;;;;;;6171447;28;20491;-81
2023/10/12 00:32:51;;;;;;;1.80;1.10;;;;;;;;;;6171888;28;20073;-81
2023/10/12 00:35:59;;;;;;;1.38;1.13;;;;;;;;;;6171577;28;20483;-81
2023/10/12 00:39:00;;;;;;;2.40;1.42;;;;;;;;;;6155191;28;20031;-81
2023/10/12 00:42:00;;;;;;;4.33;1.00;;;;;;;;;;6173206;28;20037;-81
2023/10/12 00:45:12;;;;;;;2.93;1.37;;;;;;;;;;6170424;28;20026;-81
2023/10/12 00:48:16;;;;;;;2.00;1.50;;;;;;;;;;6170559;28;20061;-82
2023/10/12 00:51:17;;;;;;;3.90;1.67;;;;;;;;;;6169590;28;20049;-81
2023/10/12 00:54:27;;;;;;;1.37;1.27;;;;;;;;;;6169372;28;20074;-81
2023/10/12 00:57:27;;;;;;;3.55;1.45;;;;;;;;;;6161506;28;20038;-81
2023/10/12 01:00:27;;;;;;;1.80;1.00;;;;;;;;;;6177852;28;20048;-80
2023/10/12 01:03:36;;;;;;;0.80;0.80;;;;;;;;;;6180492;28;20098;-80
2023/10/12 01:06:38;;;;;;;1.40;1.23;;;;;;;;;;6178498;28;20034;-81
2023/10/12 01:09:43;;;;;;;1.48;1.17;;;;;;;;;;6174843;28;20015;-80
2023/10/12 01:12:45;;;;;;;3.40;1.60;;;;;;;;;;6176296;28;20079;-81
2023/10/12 01:15:47;;;;;;;3.20;1.30;;;;;;;;;;6180729;28;20026;-81
2023/10/12 01:18:50;;;;;;;1.85;1.20;;;;;;;;;;6182817;28;20452;-81
2023/10/12 01:21:50;;;;;;;4.95;1.35;;;;;;;;;;6155805;28;20263;-81
2023/10/12 01:27:53;;;;;;;1.55;1.15;;;;;;;;;;6155440;28;20027;-83
2023/10/12 01:30:54;;;;;;;2.05;1.23;;;;;;;;;;6153057;28;20027;-83
2023/10/12 01:33:59;;;;;;;2.70;1.20;;;;;;;;;;6152246;28;20113;-84
2023/10/12 01:37:02;;;;;;;2.83;1.35;;;;;;;;;;6149996;28;20198;-83
2023/10/12 01:43:03;;;;;;;2.23;1.03;;;;;;;;;;6152663;28;20047;-83
2023/10/12 01:46:08;;;;;;;3.23;1.20;;;;;;;;;;6155339;28;20036;-83
2023/10/12 01:49:09;;;;;;;1.73;1.10;;;;;;;;;;6151293;28;20022;-83
2023/10/12 01:52:09;;;;;;;3.28;1.15;;;;;;;;;;6152164;28;20515;-83
2023/10/12 01:55:17;;;;;;;1.17;1.03;;;;;;;;;;6156244;28;20031;-83
2023/10/12 01:58:18;;;;;;;3.33;1.15;;;;;;;;;;6151752;28;20614;-83
2023/10/12 02:01:24;;;;;;;2.38;1.27;;;;;;;;;;6150546;28;20110;-83
2023/10/12 02:04:24;;;;;;;2.13;1.10;;;;;;;;;;6156344;28;20457;-83
2023/10/12 02:07:25;;;;;;;2.20;1.13;;;;;;;;;;6153083;28;20038;-83
2023/10/12 02:10:28;;;;;;;2.58;1.10;;;;;;;;;;6147922;28;20031;-83
2023/10/12 02:13:33;;;;;;;1.85;1.00;;;;;;;;;;6152173;28;20078;-83
2023/10/12 02:16:37;;;;;;;3.33;1.17;;;;;;;;;;6154205;28;20035;-83
2023/10/12 02:19:44;;;;;;;3.10;1.15;;;;;;;;;;6149636;28;20035;-83
2023/10/12 02:22:46;;;;;;;1.55;1.15;;;;;;;;;;5830938;28;10000377;-83
2023/10/12 02:25:50;;;;;;;1.30;1.20;;;;;;;;;;6178027;28;20039;-83
2023/10/12 02:28:53;;;;;;;1.58;0.93;;;;;;;;;;6171920;28;20034;-84
2023/10/12 02:34:59;;;;;;;3.13;1.23;;;;;;;;;;6177248;28;20025;-79
2023/10/12 02:38:00;;;;;;;2.50;1.27;;;;;;;;;;6165915;28;20437;-80
2023/10/12 02:41:00;;;;;;;2.20;1.10;;;;;;;;;;6178726;28;20091;-81
2023/10/12 02:44:11;;;;;;;1.50;1.17;;;;;;;;;;6173360;28;20068;-81
2023/10/12 02:47:12;;;;;;;2.00;1.08;;;;;;;;;;6160061;28;20033;-80
2023/10/12 02:53:13;;;;;;;1.90;1.03;;;;;;;;;;6172545;28;20471;-80
2023/10/12 02:56:14;;;;;;;1.80;1.07;;;;;;;;;;6178765;28;20379;-80
2023/10/12 02:59:14;;;;;;;1.92;1.00;;;;;;;;;;6171803;28;20058;-80
2023/10/12 03:02:22;;;;;;;2.00;1.07;;;;;;;;;;6176277;28;20093;-80
2023/10/12 03:05:34;;;;;;;1.70;1.10;;;;;;;;;;6174219;28;20027;-80
2023/10/12 03:08:46;;;;;;;2.83;1.00;;;;;;;;;;6174822;28;20037;-80
2023/10/12 03:11:47;;;;;;;1.70;1.10;;;;;;;;;;6183861;28;20084;-81
2023/10/12 03:14:51;;;;;;;1.63;1.02;;;;;;;;;;6171795;28;20023;-80
2023/10/12 03:17:58;;;;;;;3.08;1.08;;;;;;;;;;6176614;28;20444;-82
2023/10/12 03:21:03;;;;;;;3.10;1.05;;;;;;;;;;6171892;28;20047;-80
2023/10/12 03:24:05;;;;;;;2.15;1.27;;;;;;;;;;6172319;28;20081;-81
2023/10/12 03:27:11;;;;;;;2.03;1.10;;;;;;;;;;6156889;28;20046;-80
2023/10/12 03:30:17;;;;;;;1.38;1.20;;;;;;;;;;6173252;28;20031;-81
2023/10/12 03:33:17;;;;;;;1.52;1.13;;;;;;;;;;6178895;28;20031;-81
2023/10/12 03:36:23;;;;;;;2.57;1.47;;;;;;;;;;6173594;28;20107;-80
2023/10/12 03:45:39;;;;;;;2.00;1.20;;;;;;;;;;6172075;28;20027;-80
2023/10/12 03:49:02;;;;;;;2.25;1.08;;;;;;;;;;6172757;28;20019;-80
2023/10/12 03:52:01;;;;;;;1.30;1.00;;;;;;;;;;6171708;28;20486;-81
2023/10/12 03:58:14;;;;;;;2.28;1.00;;;;;;;;;;6170673;28;20479;-80
2023/10/12 04:04:29;;;;;;;2.47;1.00;;;;;;;;;;6170070;28;20053;-80
2023/10/12 04:11:20;;;;;;;1.50;0.90;;;;;;;;;;6161562;28;20134;-80
2023/10/12 04:17:47;;;;;;;2.50;0.88;;;;;;;;;;6188001;28;20481;-80
2023/10/12 04:20:48;;;;;;;4.40;1.02;;;;;;;;;;6186458;28;20117;-81
2023/10/12 04:27:58;;;;;;;1.00;0.90;;;;;;;;;;6192395;28;20023;-80
2023/10/12 04:30:42;;;;;;;2.58;0.80;;;;;;;;;;6204599;28;20069;-79
2023/10/12 04:37:12;;;;;;;2.33;1.60;;;;;;;;;;6191032;28;20651;-79
2023/10/12 04:43:52;;;;;;;1.98;1.02;;;;;;;;;;6217848;28;20141;-80
2023/10/12 04:46:59;;;;;;;2.42;1.10;;;;;;;;;;6177014;28;20087;-80
2023/10/12 04:49:59;;;;;;;3.22;1.05;;;;;;;;;;6194045;28;20030;-80
2023/10/12 04:53:09;;;;;;;1.47;1.00;;;;;;;;;;6191039;28;20640;-81
2023/10/12 04:56:10;;;;;;;1.60;1.10;;;;;;;;;;6171169;28;20483;-80
2023/10/12 04:59:17;;;;;;;1.38;1.00;;;;;;;;;;6171245;28;20023;-80
2023/10/12 05:06:03;;;;;;;1.27;0.88;;;;;;;;;;6160015;28;20038;-80
2023/10/12 05:09:10;;;;;;;1.52;1.10;;;;;;;;;;6169694;28;20077;-80
2023/10/12 05:12:11;;;;;;;2.53;1.08;;;;;;;;;;6176106;28;20030;-80
2023/10/12 05:15:11;;;;;;;3.17;0.97;;;;;;;;;;6171021;28;20022;-80
2023/10/12 05:18:17;;;;;;;1.73;0.97;;;;;;;;;;6173227;28;20741;-80
2023/10/12 05:21:17;;;;;;;3.17;1.00;;;;;;;;;;6155110;28;20054;-80
2023/10/12 05:24:18;;;;;;;4.30;1.60;;;;;;;;;;6176306;28;20457;-80
2023/10/12 05:27:24;;;;;;;2.47;1.70;;;;;;;;;;6176826;28;20032;-80
2023/10/12 05:30:27;;;;;;;1.65;1.15;;;;;;;;;;6173134;28;20023;-80
2023/10/12 05:36:33;;;;;;;2.00;1.02;;;;;;;;;;6174677;28;20462;-80
2023/10/12 05:39:36;;;;;;;1.10;0.83;;;;;;;;;;6170941;28;20039;-80
2023/10/12 05:42:39;;;;;;;2.15;1.00;;;;;;;;;;6162736;28;20495;-79
2023/10/12 05:45:44;;;;;;;3.53;1.23;;;;;;;;;;6181241;28;20060;-80
2023/10/12 05:48:51;;;;;;;2.63;1.00;;;;;;;;;;6176743;28;20380;-80
2023/10/12 05:51:51;;;;;;;1.80;0.82;;;;;;;;;;6176469;28;20064;-80
2023/10/12 05:54:58;;;;;;;2.43;1.03;;;;;;;;;;6167852;28;20109;-80
2023/10/12 05:58:11;;;;;;;1.90;1.02;;;;;;;;;;6178946;28;20094;-79
2023/10/12 06:01:20;;;;;;;2.53;1.05;;;;;;;;;;6192022;28;20022;-80
2023/10/12 06:04:21;;;;;;;2.47;1.08;;;;;;;;;;6174106;28;20049;-80
2023/10/12 06:07:22;;;;;;;1.87;0.80;;;;;;;;;;6181084;28;20037;-81
2023/10/12 06:10:23;;;;;;;;;;;;;;;;;;6178973;28;20030;-80
2023/10/12 06:13:30;;;;;;;2.85;0.85;;;;;;;;;;6177692;28;19918;-80
2023/10/12 06:16:38;;;;;;;3.80;1.00;;;;;;;;;;6179129;28;20030;-79
2023/10/12 06:19:38;;;;;;;1.70;0.98;;;;;;;;;;6178411;28;20034;-79
2023/10/12 06:22:38;;;;;;;3.00;1.07;;;;;;;;;;6180174;28;20088;-80
2023/10/12 06:25:39;;;;;;;1.73;1.00;;;;;;;;;;6181994;28;20050;-80
2023/10/12 06:28:41;;;;;;;2.78;1.35;;;;;;;;;;6172476;28;20066;-80
2023/10/12 06:31:41;;;;;;;2.55;1.13;;;;;;;;;;6176422;28;20160;-80
2023/10/12 06:34:42;;;;;;;1.50;0.90;;;;;;;;;;6179073;28;20423;-79
2023/10/12 06:41:26;;;;;;;2.47;1.15;;;;;;;;;;6177224;28;21502;-79
2023/10/12 06:44:27;;;;;;;1.77;1.02;;;;;;;;;;6176394;28;20035;-79
2023/10/12 06:47:28;;;;;;;2.28;1.30;;;;;;;;;;6158419;28;20056;-79
2023/10/12 06:50:29;;;;;;;2.58;1.48;;;;;;;;;;6183396;28;20026;-79
2023/10/12 06:53:34;;;;;;;1.57;1.23;;;;;;;;;;6173053;28;20434;-79
2023/10/12 06:56:39;;;;;;;3.58;1.25;;;;;;;;;;6168373;28;20273;-79
2023/10/12 06:59:52;;;;;;;1.55;1.10;;;;;;;;;;6180700;28;20033;-79
2023/10/12 07:02:52;;;;;;;3.35;1.40;;;;;;;;;;6174678;28;20434;-79
2023/10/12 07:05:53;;;;;;;2.23;1.23;;;;;;;;;;6177238;28;20049;-80
2023/10/12 07:08:57;;;;;;;1.60;1.10;;;;;;;;;;6174991;28;20041;-80
2023/10/12 07:11:57;;;;;;;3.17;1.23;;;;;;;;;;6175277;28;20041;-81
2023/10/12 07:14:57;;;;;;;2.87;1.77;;;;;;;;;;6173993;28;20687;-80
2023/10/12 07:17:58;;;;;;;3.33;1.77;;;;;;;;;;6164546;28;20038;-80
2023/10/12 07:20:59;;;;;;;4.25;1.60;;;;;;;;;;6163505;28;20055;-79
2023/10/12 07:24:01;;;;;;;3.33;1.77;;;;;;;;;;6177651;28;20046;-80
2023/10/12 07:27:21;;;;;;;4.00;1.60;;;;;;;;;;6165774;28;20479;-82
2023/10/12 07:30:30;;;;;;;3.13;1.52;;;;;;;;;;6178113;28;20418;-83
2023/10/12 07:33:33;;;;;;;2.75;1.25;;;;;;;;;;6177346;28;20452;-83
2023/10/12 07:39:42;;;;;;;3.22;1.70;;;;;;;;;;6164771;28;20069;-81
2023/10/12 07:42:46;;;;;;;3.17;1.77;;;;;;;;;;6158700;28;20081;-81
2023/10/12 07:45:49;;;;;;;3.30;1.45;;;;;;;;;;6157490;28;20023;-82
2023/10/12 07:48:51;;;;;;;3.95;1.70;;;;;;;;;;6159067;28;20030;-83
2023/10/12 07:51:59;;;;;;;6.45;1.77;;;;;;;;;;6158411;28;20029;-81
2023/10/12 07:55:04;;;;;;;3.65;1.80;;;;;;;;;;6155140;28;20042;-82
2023/10/12 07:58:04;;;;;;;5.32;2.05;;;;;;;;;;5813072;28;9999715;-82
2023/10/12 08:01:26;;;;;;;2.93;1.97;;;;;;;;;;6155967;28;20026;-82
2023/10/12 08:04:29;;;;;;;4.28;1.85;;;;;;;;;;6156656;28;20042;-81
2023/10/12 08:07:55;;;;;;;4.20;2.13;;;;;;;;;;6153086;28;20041;-82
2023/10/12 08:10:56;;;;;;;2.08;1.60;;;;;;;;;;6152547;28;20449;-82
2023/10/12 08:13:57;;;;;;;3.35;1.90;;;;;;;;;;6152512;28;20038;-82
2023/10/12 08:23:35;;;;;;;4.32;2.47;;;;;;;;;;6153396;28;20054;-83
2023/10/12 08:26:47;;;;;;;3.97;2.47;;;;;;;;;;6154909;28;20068;-82
2023/10/12 08:30:13;;;;;;;5.97;2.60;;;;;;;;;;6154222;28;20034;-82
2023/10/12 08:33:14;;;;;;;4.45;2.72;;;;;;;;;;6153416;28;21206;-81
2023/10/12 08:39:36;;;;;;;3.83;2.13;;;;;;;;;;5807597;28;10000257;-80
2023/10/12 08:42:37;;;;;;;4.88;2.72;;;;;;;;;;6158389;28;20551;-79
2023/10/12 08:45:37;;;;;;;3.72;2.28;;;;;;;;;;6155980;28;20042;-80
2023/10/12 08:48:52;;;;;;;6.20;2.33;;;;;;;;;;6158406;28;20120;-81
2023/10/12 08:52:04;;;;;;;2.75;2.10;;;;;;;;;;6157080;28;20450;-78
2023/10/12 08:55:12;;;;;;;3.10;2.25;;;;;;;;;;6154611;28;20162;-77
2023/10/12 08:58:12;;;;;;;2.72;2.08;;;;;;;;;;6139068;28;20030;-78
2023/10/12 09:01:22;;;;;;;5.17;2.43;;;;;;;;;;6157280;28;20030;-78
2023/10/12 09:04:29;;;;;;;1.98;1.77;;;;;;;;;;6155890;28;20026;-78
2023/10/12 09:07:40;;;;;;;2.50;1.70;;;;;;;;;;6154754;28;20047;-78
2023/10/12 09:10:51;;;;;;;2.85;1.83;;;;;;;;;;6158579;28;20115;-79
2023/10/12 09:13:51;;;;;;;;;;;;;;;;;;6154171;28;20038;-79
2023/10/12 09:16:53;;;;;;;1.77;1.40;;;;;;;;;;6156390;28;19925;-79
2023/10/12 09:20:09;;;;;;;2.92;1.77;;;;;;;;;;6138784;28;20029;-79
2023/10/12 09:23:16;;;;;;;3.40;1.90;;;;;;;;;;6157764;28;20062;-79
2023/10/12 09:26:30;;;;;;;2.80;1.70;;;;;;;;;;6158203;28;20566;-79
2023/10/12 09:29:42;;;;;;;5.05;1.73;;;;;;;;;;6157037;28;20092;-78
2023/10/12 09:32:57;;;;;;;2.25;1.23;;;;;;;;;;6140749;28;20410;-79
2023/10/12 09:36:00;;;;;;;4.47;1.60;;;;;;;;;;6137730;28;20027;-79
2023/10/12 09:39:01;;;;;;;1.90;1.33;;;;;;;;;;6165672;28;20038;-80
2023/10/12 09:42:19;;;;;;;3.50;1.70;;;;;;;;;;6158822;28;20107;-80
2023/10/12 09:45:23;;;;;;;3.38;1.73;;;;;;;;;;6154294;28;20592;-81
2023/10/12 09:48:38;;;;;;;3.15;1.50;;;;;;;;;;6159012;28;20439;-82
2023/10/12 09:51:45;;;;;;;2.25;1.25;;;;;;;;;;6158611;28;21694;-81
2023/10/12 09:54:49;;;;;;;2.20;1.42;;;;;;;;;;6155464;28;20037;-81
2023/10/12 09:57:51;;;;;;;1.98;1.70;;;;;;;;;;6159313;28;20145;-82
2023/10/12 10:01:07;;;;;;;2.72;1.50;;;;;;;;;;6156124;28;20087;-82
2023/10/12 10:07:27;;;;;;;1.95;1.10;;;;;;;;;;6157010;28;20042;-82
2023/10/12 10:10:32;;;;;;;1.70;1.40;;;;;;;;;;6154616;28;20038;-82
2023/10/12 10:13:39;;;;;;;1.52;1.23;;;;;;;;;;6157018;28;20272;-82
2023/10/12 10:16:57;;;;;;;2.78;1.40;;;;;;;;;;6155425;28;20047;-82
2023/10/12 10:20:46;;;;;;;1.98;1.10;;;;;;;;;;6158222;28;20109;-82
2023/10/12 10:23:47;;;;;;;1.33;1.08;;;;;;;;;;6156226;28;20045;-82
2023/10/12 10:26:53;;;;;;;2.78;1.60;;;;;;;;;;6139930;28;20041;-82
2023/10/12 10:29:53;;;;;;;1.73;1.23;;;;;;;;;;6158318;28;20669;-82
2023/10/12 10:33:13;;;;;;;2.05;1.38;;;;;;;;;;6156456;28;20043;-82
2023/10/12 10:36:27;;;;;;;2.50;1.23;;;;;;;;;;6156054;28;20740;-82
2023/10/12 10:39:37;;;;;;;2.78;1.10;;;;;;;;;;6138235;28;21705;-82
2023/10/12 10:42:37;;;;;;;1.23;1.13;;;;;;;;;;6155304;28;20035;-82
2023/10/12 10:45:38;;;;;;;2.05;1.48;;;;;;;;;;6156534;28;20495;-82
2023/10/12 10:48:38;;;;;;;2.38;1.15;;;;;;;;;;6159152;28;20023;-82
2023/10/12 10:51:42;;;;;;;2.30;1.10;;;;;;;;;;6155843;28;20033;-81
2023/10/12 10:55:10;;;;;;;1.85;1.38;;;;;;;;;;5795510;28;9999970;-79
2023/10/12 10:58:14;;;;;;;2.38;1.10;;;;;;;;;;6152900;28;20701;-78
2023/10/12 11:01:15;;;;;;;1.98;1.20;;;;;;;;;;6135295;28;20037;-79
2023/10/12 11:04:38;;;;;;;2.57;1.40;;;;;;;;;;6150174;28;20030;-79
2023/10/12 11:07:39;;;;;;;2.10;1.40;;;;;;;;;;6152576;28;20037;-80
2023/10/12 11:11:17;;;;;;;3.70;1.33;;;;;;;;;;6151093;28;20519;-78
2023/10/12 11:13:59;;;;;;;2.58;1.23;;;;;;;;;;6149593;28;20037;-79
2023/10/12 11:17:00;;;;;;;2.42;1.25;;;;;;;;;;6159082;28;20379;-79
2023/10/12 11:20:07;;;;;;;2.00;1.23;;;;;;;;;;6157468;28;20109;-78
2023/10/12 11:23:08;;;;;;;1.67;1.25;;;;;;;;;;6156635;28;20074;-79
2023/10/12 11:26:17;;;;;;;2.57;1.53;;;;;;;;;;6160504;28;20033;-79
2023/10/12 11:29:17;;;;;;;3.10;1.20;;;;;;;;;;6160733;28;20649;-79
2023/10/12 11:32:20;;;;;;;1.92;1.17;;;;;;;;;;6160305;28;20045;-80
2023/10/12 11:35:43;;;;;;;2.03;1.63;;;;;;;;;;6158812;28;20221;-79
2023/10/12 11:38:44;;;;;;;1.70;1.35;;;;;;;;;;6158568;28;20035;-80
2023/10/12 11:42:06;;;;;;;2.78;1.38;;;;;;;;;;6159510;28;20035;-78
2023/10/12 11:45:07;;;;;;;2.58;1.38;;;;;;;;;;6155052;28;20083;-80
2023/10/12 11:48:21;;;;;;;2.67;1.50;;;;;;;;;;6154221;28;20484;-80
2023/10/12 11:51:22;;;;;;;2.78;1.13;;;;;;;;;;6136533;28;20088;-78
2023/10/12 11:54:32;;;;;;;1.23;1.10;;;;;;;;;;6153283;28;20027;-78
2023/10/12 11:57:37;;;;;;;3.22;1.30;;;;;;;;;;6137719;28;20031;-79
2023/10/12 12:00:37;;;;;;;1.80;1.10;;;;;;;;;;6154026;28;20458;-79
2023/10/12 12:03:40;;;;;;;2.17;1.20;;;;;;;;;;6154280;28;20546;-80
2023/10/12 12:06:42;;;;;;;3.13;1.38;;;;;;;;;;6153483;28;20294;-82
2023/10/12 12:09:48;;;;;;;4.25;1.50;;;;;;;;;;6152003;28;20041;-82
2023/10/12 12:12:52;;;;;;;1.73;1.20;;;;;;;;;;6152215;28;20170;-82
2023/10/12 12:15:55;;;;;;;3.35;1.10;;;;;;;;;;6152833;28;20033;-82
2023/10/12 12:18:55;;;;;;;3.35;1.50;;;;;;;;;;6152152;28;21960;-82
2023/10/12 12:21:55;;;;;;;2.47;1.50;;;;;;;;;;6136833;28;20051;-82
2023/10/12 12:24:57;;;;;;;2.50;1.50;;;;;;;;;;6153973;28;20293;-82
2023/10/12 12:28:01;;;;;;;2.80;1.50;;;;;;;;;;6156544;28;20111;-82
2023/10/12 12:31:03;;;;;;;1.90;1.40;;;;;;;;;;6156319;28;20027;-82
2023/10/12 12:34:06;;;;;;;2.83;1.50;;;;;;;;;;6156983;28;20034;-82
2023/10/12 12:37:07;;;;;;;3.03;1.33;;;;;;;;;;6154834;28;20037;-82
2023/10/12 12:43:35;;;;;;;2.72;1.40;;;;;;;;;;6152628;28;20061;-82
2023/10/12 12:46:36;;;;;;;2.20;1.27;;;;;;;;;;6152667;28;20026;-82
2023/10/12 12:49:36;;;;;;;2.28;1.38;;;;;;;;;;6153816;28;20034;-82
2023/10/12 12:52:40;;;;;;;4.27;1.57;;;;;;;;;;6151801;28;20035;-82
2023/10/12 12:55:41;;;;;;;3.38;1.75;;;;;;;;;;6160482;28;20038;-83
2023/10/12 12:58:46;;;;;;;2.57;1.77;;;;;;;;;;6157520;28;20110;-83
2023/10/12 13:01:46;;;;;;;2.72;1.55;;;;;;;;;;6161767;28;20057;-83
2023/10/12 13:04:46;;;;;;;4.05;1.55;;;;;;;;;;6141191;28;20038;-82
2023/10/12 13:07:47;;;;;;;2.40;1.57;;;;;;;;;;6158129;28;20034;-82
2023/10/12 13:10:47;;;;;;;2.50;1.25;;;;;;;;;;6139456;28;20031;-83
2023/10/12 13:13:47;;;;;;;2.43;1.20;;;;;;;;;;6152014;28;20060;-84
2023/10/12 13:16:49;;;;;;;1.52;1.23;;;;;;;;;;6156836;28;20037;-83
2023/10/12 13:19:50;;;;;;;1.77;1.30;;;;;;;;;;6158123;28;20042;-83
2023/10/12 13:22:50;;;;;;;2.50;1.48;;;;;;;;;;6159444;28;20055;-83
2023/10/12 13:25:50;;;;;;;2.05;1.42;;;;;;;;;;6157769;28;20406;-83
2023/10/12 13:28:51;;;;;;;3.47;1.40;;;;;;;;;;6160149;28;20034;-83
2023/10/12 13:31:51;;;;;;;2.20;1.47;;;;;;;;;;6157868;28;20535;-83
2023/10/12 13:34:51;;;;;;;2.47;1.60;;;;;;;;;;6140579;28;20313;-83
2023/10/12 13:37:52;;;;;;;1.58;1.25;;;;;;;;;;5815301;28;10000207;-83
2023/10/12 13:40:52;;;;;;;2.20;1.40;;;;;;;;;;6164371;28;20031;-83
2023/10/12 13:43:52;;;;;;;4.30;1.60;;;;;;;;;;6159487;28;20297;-84
2023/10/12 13:46:52;;;;;;;4.65;1.27;;;;;;;;;;6161062;28;20030;-83
2023/10/12 13:49:54;;;;;;;2.60;1.70;;;;;;;;;;6160456;28;20031;-85
2023/10/12 13:52:54;;;;;;;1.95;1.58;;;;;;;;;;6159357;28;20270;-85
2023/10/12 13:55:54;;;;;;;1.60;1.20;;;;;;;;;;6160488;28;20114;-88
2023/10/12 13:58:58;;;;;;;2.13;1.25;;;;;;;;;;6161975;28;20038;-87
2023/10/12 14:01:59;;;;;;;2.08;1.30;;;;;;;;;;6159908;28;20042;-87
2023/10/12 14:05:00;;;;;;;2.70;1.50;;;;;;;;;;6163762;28;20030;-87
2023/10/12 14:08:01;;;;;;;6.15;1.40;;;;;;;;;;6159715;28;20035;-87
2023/10/12 14:11:06;;;;;;;2.72;1.33;;;;;;;;;;6162647;28;20027;-85
2023/10/12 14:14:09;;;;;;;2.50;1.40;;;;;;;;;;6161419;28;20030;-84
2023/10/12 14:17:11;;;;;;;2.63;1.50;;;;;;;;;;6161874;28;20058;-85
2023/10/12 14:20:13;;;;;;;1.52;1.33;;;;;;;;;;6160826;28;20024;-85
2023/10/12 14:23:14;;;;;;;2.30;1.42;;;;;;;;;;6147199;28;20617;-85
2023/10/12 14:26:18;;;;;;;2.90;1.85;;;;;;;;;;6135476;28;20123;-87
2023/10/12 14:29:18;;;;;;;3.78;1.70;;;;;;;;;;6140423;28;20256;-86
2023/10/12 14:32:18;;;;;;;2.13;1.75;;;;;;;;;;6138826;28;20019;-88
2023/10/12 14:35:19;;;;;;;2.17;1.60;;;;;;;;;;6137597;28;20054;-87
2023/10/12 14:38:21;;;;;;;2.13;1.57;;;;;;;;;;6137462;28;20034;-87
2023/10/12 14:41:21;;;;;;;1.98;1.60;;;;;;;;;;6137154;28;20100;-87
2023/10/12 14:44:22;;;;;;;2.55;1.45;;;;;;;;;;6136821;28;20039;-89
2023/10/12 14:47:22;;;;;;;2.78;1.52;;;;;;;;;;6171237;28;20096;-89
2023/10/12 14:50:24;;;;;;;2.47;1.50;;;;;;;;;;6136624;28;20166;-72
2023/10/12 14:53:28;;;;;;;2.78;1.70;;;;;;;;;;6137876;28;20042;-89
2023/10/12 14:56:28;;;;;;;3.58;1.48;;;;;;;;;;6137046;28;20031;-88
2023/10/12 14:59:28;;;;;;;2.17;1.40;;;;;;;;;;6137643;28;20491;-88
2023/10/12 15:02:30;;;;;;;1.83;1.50;;;;;;;;;;6138861;28;20031;-87
2023/10/12 15:05:32;;;;;;;2.17;1.30;;;;;;;;;;6136536;28;20043;-86
2023/10/12 15:08:36;;;;;;;2.33;1.42;;;;;;;;;;6135831;28;20054;-87
2023/10/12 15:11:36;;;;;;;2.38;1.48;;;;;;;;;;6135079;28;20054;-87
2023/10/12 15:14:36;;;;;;;2.97;1.43;;;;;;;;;;6136587;28;20053;-84
2023/10/12 15:17:40;;;;;;;1.50;1.20;;;;;;;;;;6136411;28;20271;-86
2023/10/12 15:20:40;;;;;;;1.27;1.15;;;;;;;;;;6136321;28;20055;-85
2023/10/12 15:23:42;;;;;;;1.63;1.40;;;;;;;;;;6157851;28;20072;-85
2023/10/12 15:26:43;;;;;;;2.67;1.58;;;;;;;;;;6159546;28;20106;-85
2023/10/12 15:29:44;;;;;;;2.00;1.50;;;;;;;;;;6159495;28;20121;-85
2023/10/12 15:32:44;;;;;;;1.95;1.42;;;;;;;;;;6160061;28;20148;-86
2023/10/12 15:35:44;;;;;;;2.92;1.58;;;;;;;;;;6141841;28;20033;-83
2023/10/12 15:38:45;;;;;;;2.95;1.50;;;;;;;;;;5815260;27;10000598;-85
2023/10/12 15:41:45;;;;;;;3.20;1.48;;;;;;;;;;6138702;28;20034;-83
2023/10/12 15:44:45;;;;;;;2.72;1.60;;;;;;;;;;6138554;28;20541;-83
2023/10/12 15:47:46;;;;;;;2.13;1.60;;;;;;;;;;6158881;28;20030;-83
2023/10/12 15:50:46;;;;;;;2.13;1.50;;;;;;;;;;6153806;28;20062;-84
2023/10/12 15:53:47;;;;;;;1.77;1.40;;;;;;;;;;6156182;28;20181;-84
2023/10/12 15:56:47;;;;;;;2.28;1.75;;;;;;;;;;6157833;28;20033;-83
2023/10/12 15:59:47;;;;;;;1.90;1.70;;;;;;;;;;6156527;28;20112;-82
2023/10/12 16:02:52;;;;;;;1.40;1.30;;;;;;;;;;6156081;28;20330;-83
2023/10/12 16:05:52;;;;;;;3.05;1.73;;;;;;;;;;6155165;28;20034;-83
2023/10/12 16:08:55;;;;;;;3.25;2.08;;;;;;;;;;6158534;28;20041;-83
2023/10/12 16:11:57;;;;;;;2.85;2.00;;;;;;;;;;6156823;28;20660;-83
2023/10/12 16:14:59;;;;;;;2.63;1.95;;;;;;;;;;6160132;28;20400;-84
2023/10/12 16:17:59;;;;;;;4.20;2.10;;;;;;;;;;6173103;28;20046;-83
2023/10/12 16:21:06;;;;;;;4.17;2.00;;;;;;;;;;6158326;28;20779;-86
2023/10/12 16:24:08;;;;;;;3.80;1.90;;;;;;;;;;6157524;28;20035;-84
2023/10/12 16:27:09;;;;;;;2.70;1.80;;;;;;;;;;6146469;28;20030;-84
2023/10/12 16:30:14;;;;;;;3.17;1.77;;;;;;;;;;6175120;28;20058;-84
2023/10/12 16:33:15;;;;;;;3.55;1.70;;;;;;;;;;6173514;28;20290;-84
2023/10/12 16:36:16;;;;;;;3.17;2.00;;;;;;;;;;6189724;28;20123;-83
2023/10/12 16:39:16;;;;;;;2.50;2.00;;;;;;;;;;6190607;28;20030;-84
2023/10/12 16:42:17;;;;;;;3.50;2.08;;;;;;;;;;6196541;28;20483;-84
2023/10/12 16:45:21;;;;;;;4.07;2.17;;;;;;;;;;6173826;28;20026;-88
2023/10/12 16:48:25;;;;;;;3.30;2.13;;;;;;;;;;6184210;28;20387;-88
2023/10/12 16:51:25;;;;;;;3.53;2.67;;;;;;;;;;6169689;28;20398;-89
2023/10/12 16:54:27;;;;;;;3.30;2.63;;;;;;;;;;6177774;28;20043;-88
2023/10/12 16:57:27;;;;;;;2.63;2.10;;;;;;;;;;6176875;28;20088;-88
2023/10/12 17:00:27;;;;;;;2.47;1.95;;;;;;;;;;6178882;28;20387;-88
2023/10/12 17:03:29;;;;;;;2.20;1.75;;;;;;;;;;6177051;28;20045;-88
2023/10/12 17:06:30;;;;;;;2.70;1.83;;;;;;;;;;6220078;28;20127;-88
2023/10/12 17:09:30;;;;;;;3.00;1.97;;;;;;;;;;6280631;28;20074;-88
2023/10/12 17:12:32;;;;;;;2.77;2.03;;;;;;;;;;6175203;28;20303;-87
2023/10/12 17:15:33;;;;;;;2.00;1.60;;;;;;;;;;6175416;28;20038;-88
2023/10/12 17:18:35;;;;;;;3.08;1.70;;;;;;;;;;6167191;28;20117;-86
2023/10/12 17:21:35;;;;;;;2.40;1.98;;;;;;;;;;6170991;28;20149;-88
2023/10/12 17:24:35;;;;;;;2.67;1.93;;;;;;;;;;6170211;28;20046;-87
2023/10/12 17:27:36;;;;;;;2.95;1.92;;;;;;;;;;6169224;28;20498;-87
2023/10/12 17:30:36;;;;;;;3.50;2.15;;;;;;;;;;6170213;28;20037;-87
2023/10/12 17:33:37;;;;;;;2.87;2.07;;;;;;;;;;6176534;28;20506;-87
2023/10/12 17:36:37;;;;;;;3.60;2.20;;;;;;;;;;6161474;28;20304;-87
2023/10/12 17:39:38;;;;;;;4.83;3.90;;;;;;;;;;6172748;28;20069;-88
2023/10/12 17:42:38;;;;;;;4.13;3.28;;;;;;;;;;6179736;28;20093;-88
2023/10/12 17:45:41;;;;;;;2.90;2.43;;;;;;;;;;6175993;28;20038;-87
2023/10/12 17:48:41;;;;;;;3.58;2.05;;;;;;;;;;6169382;28;20043;-87
2023/10/12 17:51:42;;;;;;;2.47;1.87;;;;;;;;;;6178105;28;20031;-87
2023/10/12 17:54:43;;;;;;;4.60;2.20;;;;;;;;;;6164148;28;20300;-87
2023/10/12 17:57:43;;;;;;;3.05;1.98;;;;;;;;;;6180837;28;20023;-86
2023/10/12 18:00:45;;;;;;;3.08;2.15;;;;;;;;;;6171912;28;20035;-86
2023/10/12 18:03:47;;;;;;;2.60;2.17;;;;;;;;;;6176628;28;20444;-88
2023/10/12 18:06:51;;;;;;;3.22;2.13;;;;;;;;;;6171814;28;20027;-87
2023/10/12 18:09:51;;;;;;;4.10;2.58;;;;;;;;;;6172098;28;20023;-88
2023/10/12 18:12:53;;;;;;;3.20;2.17;;;;;;;;;;6192960;28;20065;-88
2023/10/12 18:16:00;;;;;;;2.63;2.00;;;;;;;;;;6171688;28;20452;-87
2023/10/12 18:19:02;;;;;;;3.78;2.10;;;;;;;;;;6181278;28;20507;-87
2023/10/12 18:22:02;;;;;;;2.92;2.08;;;;;;;;;;6173209;28;20058;-87
2023/10/12 18:25:06;;;;;;;2.97;1.77;;;;;;;;;;6169152;28;20479;-87
2023/10/12 18:28:06;;;;;;;5.75;3.13;;;;;;;;;;6178212;28;20103;-87
2023/10/12 18:31:09;;;;;;;5.50;3.07;;;;;;;;;;6173838;28;20019;-88
2023/10/12 18:34:09;;;;;;;3.80;2.45;;;;;;;;;;6160447;28;20034;-88
2023/10/12 18:37:09;;;;;;;3.25;2.03;;;;;;;;;;6178255;28;20026;-88
2023/10/12 18:40:12;;;;;;;2.67;1.87;;;;;;;;;;6178056;28;20477;-87
2023/10/12 18:43:13;;;;;;;3.92;2.40;;;;;;;;;;6183949;28;20395;-87
2023/10/12 18:46:31;;;;;;;3.92;2.30;;;;;;;;;;6185928;28;20095;-87
2023/10/12 18:49:31;;;;;;;4.60;2.03;;;;;;;;;;6168358;28;20030;-88
2023/10/12 18:52:37;;;;;;;3.40;2.17;;;;;;;;;;6172492;28;20042;-88
2023/10/12 18:55:37;;;;;;;3.72;2.40;;;;;;;;;;6173206;28;20387;-87
2023/10/12 18:58:38;;;;;;;2.65;2.08;;;;;;;;;;6160111;28;20310;-87
2023/10/12 19:01:38;;;;;;;2.60;1.98;;;;;;;;;;6175748;28;20031;-87
2023/10/12 19:04:46;;;;;;;3.97;2.10;;;;;;;;;;6162964;28;20045;-87
2023/10/12 19:07:47;;;;;;;4.00;1.95;;;;;;;;;;6184479;28;20050;-87
2023/10/12 19:10:47;;;;;;;2.28;1.88;;;;;;;;;;6175108;28;20062;-88
2023/10/12 19:13:50;;;;;;;;;;;;;;;;;;6161873;28;20042;-87
2023/10/12 19:16:51;;;;;;;3.05;1.48;;;;;;;;;;6175097;28;19965;-87
2023/10/12 19:19:52;;;;;;;2.67;1.98;;;;;;;;;;6161024;28;20096;-87
2023/10/12 19:22:52;;;;;;;4.40;1.88;;;;;;;;;;6174352;28;20050;-88
2023/10/12 19:25:59;;;;;;;2.90;2.22;;;;;;;;;;6175143;28;20033;-87
2023/10/12 19:29:07;;;;;;;3.58;1.90;;;;;;;;;;6170147;28;20388;-87
2023/10/12 19:32:10;;;;;;;3.72;2.03;;;;;;;;;;6167395;28;20412;-87
2023/10/12 19:35:11;;;;;;;2.80;1.95;;;;;;;;;;6156913;28;20030;-87